• Join FlightAware (Why Join?)
  • Login
  • US Flag 
01:21PM EST


 

Airport Tracker/Info


-or-


 

Live Flight TrackerFlight Track Log ✈ FIN667 ✈ 22-Jul-2014 ✈ EFHK / HEL - EKCH / CPH

Flight Track Log - Related Links

Times and Time Zones

All times are in EDT time to prevent confusion due to time zone crossing. See the FIN667 flight status page for this flight to view local times or setup timezone preferences in your user account.

Time Position Orientation Groundspeed Altitude Reporting Facility
EDT Latitude Longitude Course Direction KTS MPH feet Rate Location/Type
10:55AM 60.0793 24.1591 240° Southwest  Level Estimated
10:56AM 60.0191 23.9598 239° Southwest  Level Estimated
10:57AM 59.9594 23.7641 239° Southwest  Level Estimated
10:58AM 59.8995 23.5691 239° Southwest  Level Estimated
10:59AM 59.8392 23.3749 238° Southwest  Level Estimated
11:00AM 59.7787 23.1813 238° Southwest  Level Estimated
11:01AM 59.7179 22.9884 238° Southwest  Level Estimated
11:02AM 59.6568 22.7962 238° Southwest  Level Estimated
11:03AM 59.5954 22.6048 238° Southwest  Level Estimated
11:04AM 59.5338 22.4140 238° Southwest  Level Estimated
11:05AM 59.4719 22.2239 237° Southwest  Level Estimated
11:06AM 59.4097 22.0345 237° Southwest  Level Estimated
11:07AM 59.3472 21.8458 237° Southwest  Level Estimated
11:08AM 59.2844 21.6579 237° Southwest  Level Estimated
11:09AM 59.2214 21.4706 237° Southwest  Level Estimated
11:10AM 59.1581 21.2840 237° Southwest  Level Estimated
11:11AM 59.0946 21.0980 236° Southwest  Level Estimated
11:12AM 59.0308 20.9128 236° Southwest  Level Estimated
11:13AM 58.9667 20.7283 236° Southwest  Level Estimated
11:14AM 58.9024 20.5444 236° Southwest  Level Estimated
11:15AM 58.8368 20.3586 236° Southwest  Level Estimated
11:16AM 58.7710 20.1735 236° Southwest  Level Estimated
11:17AM 58.7050 19.9891 235° Southwest  Level Estimated
11:18AM 58.6386 19.8054 235° Southwest  Level Estimated
11:19AM 58.5720 19.6224 235° Southwest  Level Estimated
11:20AM 58.5052 19.4401 235° Southwest  Level Estimated
11:21AM 58.4381 19.2584 235° Southwest  Level Estimated
11:22AM 58.3707 19.0775 235° Southwest  Level Estimated
11:23AM 58.3031 18.8973 235° Southwest  Level Estimated
11:24AM 58.2352 18.7177 234° Southwest  Level Estimated
11:25AM 58.1671 18.5389 234° Southwest  Level Estimated
11:26AM 58.0987 18.3607 234° Southwest  Level Estimated
11:27AM 58.0301 18.1832 234° Southwest  Level Estimated
11:28AM 57.9613 18.0064 234° Southwest  Level Estimated
11:29AM 57.8922 17.8302 234° Southwest  Level Estimated
11:30AM 57.8228 17.6548 233° Southwest  Level Estimated
11:31AM 57.7532 17.4800 233° Southwest  Level Estimated
11:32AM 57.6834 17.3059 233° Southwest  Level Estimated
11:33AM 57.6133 17.1324 233° Southwest  Level Estimated
11:34AM 57.5430 16.9597 233° Southwest  Level Estimated
11:35AM 57.4725 16.7876 233° Southwest  Level Estimated
11:36AM 57.4017 16.6161 233° Southwest  Level Estimated
11:37AM 57.3307 16.4454 232° Southwest  Level Estimated
11:38AM 57.2594 16.2752 232° Southwest  Level Estimated
11:39AM 57.1880 16.1058 232° Southwest  Level Estimated
11:40AM 57.1163 15.9370 232° Southwest  Level Estimated
11:41AM 57.0444 15.7688 232° Southwest  Level Estimated
11:42AM 56.9722 15.6013 232° Southwest  Level Estimated
11:43AM 56.8999 15.4345 232° Southwest  Level Estimated
11:44AM 56.8273 15.2683 231° Southwest  Level Estimated
11:45AM 56.7545 15.1027 231° Southwest  Level Estimated
11:46AM 56.6814 14.9378 231° Southwest  Level Estimated
11:47AM 56.6082 14.7735 231° Southwest  Level Estimated
11:48AM 56.5347 14.6098 231° Southwest  Level Estimated
11:49AM 56.4611 14.4468 231° Southwest  Level Estimated
11:50AM 56.3872 14.2845 231° Southwest  Level Estimated
11:51AM 56.3131 14.1227 230° Southwest  Level Estimated
11:52AM 56.2388 13.9616 230° Southwest  Level Estimated
11:53AM 56.1643 13.8011 230° Southwest  Level Estimated
11:54AM 56.0895 13.6412 230° Southwest  Level Estimated
11:55AM 56.0146 13.4820 230° Southwest  Level Estimated
11:56AM 55.9395 13.3233 230° Southwest  Level Estimated
11:57AM 55.8641 13.1653 230° Southwest  Level Estimated
11:58AM 55.7886 13.0079 230° Southwest  Level Estimated
11:59AM 55.7129 12.8511 229° Southwest  Level Estimated
12:00PM 55.6323 12.6853 229° Southwest  Level Estimated
12:01PM 55.6179 12.6560 229° Southwest  Level Estimated
12:02PM 55.6179 12.6560 North  Level Estimated
12:03PM 55.6179 12.6560 North  Level Estimated
12:04PM 55.6179 12.6560 North  Level Estimated
12:05PM 55.6179 12.6560 North  Level Estimated
12:06PM 55.6179 12.6560 North  Level Estimated
12:07PM 55.6179 12.6560 North  Level Estimated
12:08PM 55.6179 12.6560 North  Level Estimated
12:09PM 55.6179 12.6560 North  Level Estimated
12:10PM 55.6179 12.6560 North  Level Estimated
12:11PM 55.6179 12.6560 North  Level Estimated
12:12PM 55.6179 12.6560 North  Level Estimated